SBME

Details ICAO SBME (MEA)
Name MACAE
Region Brazil
Timezone America/Sao_Paulo (UTC-2.0)
Plans Departing 21
Arriving 18
Stats Elevation 8 ft / 2 m (AMSL)
Location -22.343032° -41.766035°
Runways 1
Magnetic Variation 23.289° W
Sunrise 2017-12-14 07:58:34 UTC / 2017-12-14 05:58:34 Local
Sunset 2017-12-14 21:27:50 UTC / 2017-12-14 19:27:50 Local
Advertisement - Login to hide

Runways

ID Width Length Bearing (true) Bearing (mag) Surface Threshold Offset Overrun Length
06 98 ft / 30 m 3,973 ft / 1,211 m 33.02° 56.31° Asphalt 0 ft / 0 m 0 ft / 0 m
24 98 ft / 30 m 3,973 ft / 1,211 m 213.01° 236.30° Asphalt 0 ft / 0 m 0 ft / 0 m

Map

Weather


0- 5 10 15 20 25 30 35+ Temperature / ° C

Clouds and Precipitation
Forecast for 2017-12-14 06:00 UTC. Updated 2 hours ago

Ground ~20,000 ft ~40,000 ft Winds

METAR

Not found

TAF

TAF TAF SBME 132100Z 1400/1412 06007KT 9999 FEW025TN21/1408Z TX27/1412Z BECMG 1406/1408 04015KT RMK PGU

Frequencies

Recorded 127.77 MHz ATIS
Tower 118.45 MHz TWR
Approach 129.30 MHz APP
Ground 121.70 MHz GND
Approach 120.00 MHz APP
Approach 119.20 MHz APP
Warning: Do not use this data for real-world aviation or navigation. No guarantee of current accuracy is given.